sensor_id;sensor_type;location;lat;lon;timestamp;pressure;altitude;pressure_sealevel;temperature;humidity
1207;BME280;593;53.184;8.216;2023-06-10T00:01:24;101423.41;;;19.70;61.68
1207;BME280;593;53.184;8.216;2023-06-10T00:03:53;101423.56;;;19.65;62.33
1207;BME280;593;53.184;8.216;2023-06-10T00:06:19;101429.56;;;19.67;61.92
1207;BME280;593;53.184;8.216;2023-06-10T00:08:47;101417.41;;;19.60;63.35
1207;BME280;593;53.184;8.216;2023-06-10T00:11:13;101418.38;;;19.55;62.76
1207;BME280;593;53.184;8.216;2023-06-10T00:13:38;101427.00;;;19.54;63.22
1207;BME280;593;53.184;8.216;2023-06-10T00:16:04;101423.22;;;19.50;63.47
1207;BME280;593;53.184;8.216;2023-06-10T00:18:29;101424.69;;;19.47;63.69
1207;BME280;593;53.184;8.216;2023-06-10T00:20:57;101430.88;;;19.53;63.83
1207;BME280;593;53.184;8.216;2023-06-10T00:23:22;101426.47;;;19.52;63.73
1207;BME280;593;53.184;8.216;2023-06-10T00:25:50;101428.28;;;19.48;64.69
1207;BME280;593;53.184;8.216;2023-06-10T00:28:15;101426.00;;;19.50;64.31
1207;BME280;593;53.184;8.216;2023-06-10T00:30:41;101427.63;;;19.51;65.54
1207;BME280;593;53.184;8.216;2023-06-10T00:33:06;101428.59;;;19.46;65.40
1207;BME280;593;53.184;8.216;2023-06-10T00:35:31;101414.63;;;19.43;66.04
1207;BME280;593;53.184;8.216;2023-06-10T00:37:57;101422.72;;;19.39;67.34
1207;BME280;593;53.184;8.216;2023-06-10T00:40:22;101428.06;;;19.36;66.97
1207;BME280;593;53.184;8.216;2023-06-10T00:42:47;101427.06;;;19.32;68.12
1207;BME280;593;53.184;8.216;2023-06-10T00:45:13;101436.81;;;19.29;69.31
1207;BME280;593;53.184;8.216;2023-06-10T00:47:38;101438.78;;;19.29;68.98
1207;BME280;593;53.184;8.216;2023-06-10T00:50:05;101433.06;;;19.25;68.80
1207;BME280;593;53.184;8.216;2023-06-10T00:52:31;101430.66;;;19.24;68.96
1207;BME280;593;53.184;8.216;2023-06-10T00:54:57;101442.81;;;19.23;69.73
1207;BME280;593;53.184;8.216;2023-06-10T00:57:24;101438.41;;;19.21;70.05
1207;BME280;593;53.184;8.216;2023-06-10T00:59:50;101447.34;;;19.18;70.94
1207;BME280;593;53.184;8.216;2023-06-10T01:02:16;101434.81;;;19.12;71.55
1207;BME280;593;53.184;8.216;2023-06-10T01:04:41;101435.78;;;19.08;72.61
1207;BME280;593;53.184;8.216;2023-06-10T01:07:12;101435.31;;;19.06;72.99
1207;BME280;593;53.184;8.216;2023-06-10T01:09:51;101427.81;;;18.98;73.77
1207;BME280;593;53.184;8.216;2023-06-10T01:15:08;101445.31;;;18.93;75.22
1207;BME280;593;53.184;8.216;2023-06-10T01:20:19;101431.63;;;18.80;76.26
1207;BME280;593;53.184;8.216;2023-06-10T01:22:44;101435.69;;;18.82;76.24
1207;BME280;593;53.184;8.216;2023-06-10T01:25:11;101443.97;;;18.82;76.84
1207;BME280;593;53.184;8.216;2023-06-10T01:27:38;101441.06;;;18.79;77.85
1207;BME280;593;53.184;8.216;2023-06-10T01:30:10;101439.75;;;18.76;77.99
1207;BME280;593;53.184;8.216;2023-06-10T01:32:43;101447.50;;;18.74;78.40
1207;BME280;593;53.184;8.216;2023-06-10T01:35:10;101453.16;;;18.69;78.98
1207;BME280;593;53.184;8.216;2023-06-10T01:37:38;101448.78;;;18.68;78.54
1207;BME280;593;53.184;8.216;2023-06-10T01:40:05;101442.25;;;18.64;78.77
1207;BME280;593;53.184;8.216;2023-06-10T01:42:32;101453.28;;;18.64;79.81
1207;BME280;593;53.184;8.216;2023-06-10T01:44:58;101438.34;;;18.56;79.81
1207;BME280;593;53.184;8.216;2023-06-10T01:47:23;101446.94;;;18.55;80.10
1207;BME280;593;53.184;8.216;2023-06-10T01:49:49;101450.31;;;18.52;81.00
1207;BME280;593;53.184;8.216;2023-06-10T01:52:15;101444.31;;;18.50;80.80
1207;BME280;593;53.184;8.216;2023-06-10T01:54:40;101447.06;;;18.50;80.16
1207;BME280;593;53.184;8.216;2023-06-10T01:57:06;101442.47;;;18.45;81.10
1207;BME280;593;53.184;8.216;2023-06-10T01:59:31;101458.13;;;18.36;82.38
1207;BME280;593;53.184;8.216;2023-06-10T02:01:57;101451.44;;;18.29;82.69
1207;BME280;593;53.184;8.216;2023-06-10T02:04:22;101452.88;;;18.26;82.58
1207;BME280;593;53.184;8.216;2023-06-10T02:06:47;101459.19;;;18.27;83.20
1207;BME280;593;53.184;8.216;2023-06-10T02:09:13;101456.16;;;18.28;83.47
1207;BME280;593;53.184;8.216;2023-06-10T02:11:39;101464.72;;;18.27;83.70
1207;BME280;593;53.184;8.216;2023-06-10T02:14:04;101457.72;;;18.21;83.75
1207;BME280;593;53.184;8.216;2023-06-10T02:16:30;101466.59;;;18.18;83.58
1207;BME280;593;53.184;8.216;2023-06-10T02:18:56;101467.44;;;18.18;84.16
1207;BME280;593;53.184;8.216;2023-06-10T02:21:22;101472.25;;;18.13;85.00
1207;BME280;593;53.184;8.216;2023-06-10T02:23:47;101466.34;;;18.06;85.52
1207;BME280;593;53.184;8.216;2023-06-10T02:26:12;101474.13;;;18.04;85.62
1207;BME280;593;53.184;8.216;2023-06-10T02:28:38;101480.41;;;18.04;86.08
1207;BME280;593;53.184;8.216;2023-06-10T02:31:03;101474.88;;;17.96;86.48
1207;BME280;593;53.184;8.216;2023-06-10T02:33:28;101479.88;;;17.93;86.19
1207;BME280;593;53.184;8.216;2023-06-10T02:35:55;101483.94;;;17.96;86.93
1207;BME280;593;53.184;8.216;2023-06-10T02:38:21;101475.09;;;17.85;87.16
1207;BME280;593;53.184;8.216;2023-06-10T02:40:46;101477.53;;;17.87;87.81
1207;BME280;593;53.184;8.216;2023-06-10T02:43:12;101483.47;;;17.80;88.11
1207;BME280;593;53.184;8.216;2023-06-10T02:45:37;101481.34;;;17.77;88.27
1207;BME280;593;53.184;8.216;2023-06-10T02:48:02;101484.91;;;17.78;87.96
1207;BME280;593;53.184;8.216;2023-06-10T02:50:28;101479.41;;;17.78;88.13
1207;BME280;593;53.184;8.216;2023-06-10T02:52:53;101474.97;;;17.68;88.76
1207;BME280;593;53.184;8.216;2023-06-10T02:55:19;101469.94;;;17.70;88.74
1207;BME280;593;53.184;8.216;2023-06-10T02:57:44;101478.50;;;17.69;89.09
1207;BME280;593;53.184;8.216;2023-06-10T03:00:10;101488.88;;;17.72;88.51
1207;BME280;593;53.184;8.216;2023-06-10T03:02:37;101473.94;;;17.64;88.62
1207;BME280;593;53.184;8.216;2023-06-10T03:05:04;101473.75;;;17.61;88.80
1207;BME280;593;53.184;8.216;2023-06-10T03:07:30;101481.47;;;17.59;88.79
1207;BME280;593;53.184;8.216;2023-06-10T03:09:56;101486.97;;;17.59;89.68
1207;BME280;593;53.184;8.216;2023-06-10T03:12:21;101466.47;;;17.51;89.51
1207;BME280;593;53.184;8.216;2023-06-10T03:14:47;101480.69;;;17.58;89.57
1207;BME280;593;53.184;8.216;2023-06-10T03:17:12;101491.16;;;17.56;89.69
1207;BME280;593;53.184;8.216;2023-06-10T03:19:38;101479.84;;;17.44;89.91
1207;BME280;593;53.184;8.216;2023-06-10T03:22:21;101485.47;;;17.39;90.67
1207;BME280;593;53.184;8.216;2023-06-10T03:24:46;101487.81;;;17.32;91.60
1207;BME280;593;53.184;8.216;2023-06-10T03:27:15;101488.75;;;17.27;92.18
1207;BME280;593;53.184;8.216;2023-06-10T03:29:41;101489.03;;;17.26;92.50
1207;BME280;593;53.184;8.216;2023-06-10T03:32:07;101500.66;;;17.23;92.96
1207;BME280;593;53.184;8.216;2023-06-10T03:34:33;101491.88;;;17.21;92.87
1207;BME280;593;53.184;8.216;2023-06-10T03:36:59;101494.34;;;17.22;92.97
1207;BME280;593;53.184;8.216;2023-06-10T03:39:25;101503.19;;;17.19;93.00
1207;BME280;593;53.184;8.216;2023-06-10T03:41:51;101495.06;;;17.14;93.42
1207;BME280;593;53.184;8.216;2023-06-10T03:44:16;101493.22;;;17.10;93.32
1207;BME280;593;53.184;8.216;2023-06-10T03:46:42;101499.22;;;17.12;93.61
1207;BME280;593;53.184;8.216;2023-06-10T03:49:07;101497.31;;;17.12;93.88
1207;BME280;593;53.184;8.216;2023-06-10T03:51:33;101505.34;;;17.09;94.09
1207;BME280;593;53.184;8.216;2023-06-10T03:53:58;101500.84;;;16.99;94.68
1207;BME280;593;53.184;8.216;2023-06-10T03:56:23;101494.34;;;16.95;94.60
1207;BME280;593;53.184;8.216;2023-06-10T03:58:49;101500.66;;;16.96;94.66
1207;BME280;593;53.184;8.216;2023-06-10T04:01:14;101501.78;;;16.95;94.49
1207;BME280;593;53.184;8.216;2023-06-10T04:03:40;101506.94;;;16.96;94.24
1207;BME280;593;53.184;8.216;2023-06-10T04:06:07;101495.97;;;16.96;94.79
1207;BME280;593;53.184;8.216;2023-06-10T04:08:32;101504.75;;;16.98;94.70
1207;BME280;593;53.184;8.216;2023-06-10T04:10:58;101489.22;;;16.89;94.88
1207;BME280;593;53.184;8.216;2023-06-10T04:13:23;101490.25;;;16.79;94.83
1207;BME280;593;53.184;8.216;2023-06-10T04:15:49;101503.69;;;16.81;95.48
1207;BME280;593;53.184;8.216;2023-06-10T04:18:14;101514.69;;;16.81;95.65
1207;BME280;593;53.184;8.216;2023-06-10T04:20:41;101510.53;;;16.83;95.64
1207;BME280;593;53.184;8.216;2023-06-10T04:23:06;101501.56;;;16.78;95.94
1207;BME280;593;53.184;8.216;2023-06-10T04:25:32;101502.38;;;16.78;96.13
1207;BME280;593;53.184;8.216;2023-06-10T04:27:57;101513.88;;;16.80;95.76
1207;BME280;593;53.184;8.216;2023-06-10T04:30:23;101510.63;;;16.78;96.17
1207;BME280;593;53.184;8.216;2023-06-10T04:32:48;101502.97;;;16.75;96.65
1207;BME280;593;53.184;8.216;2023-06-10T04:35:15;101495.66;;;16.71;96.69
1207;BME280;593;53.184;8.216;2023-06-10T04:37:40;101505.91;;;16.79;96.75
1207;BME280;593;53.184;8.216;2023-06-10T04:40:07;101498.81;;;16.78;96.55
1207;BME280;593;53.184;8.216;2023-06-10T04:42:33;101499.00;;;16.67;97.19
1207;BME280;593;53.184;8.216;2023-06-10T04:44:58;101503.34;;;16.68;97.27
1207;BME280;593;53.184;8.216;2023-06-10T04:47:25;101492.34;;;16.68;97.67
1207;BME280;593;53.184;8.216;2023-06-10T04:49:51;101500.00;;;16.72;97.37
1207;BME280;593;53.184;8.216;2023-06-10T04:52:17;101497.66;;;16.65;97.29
1207;BME280;593;53.184;8.216;2023-06-10T04:54:43;101495.75;;;16.65;97.66
1207;BME280;593;53.184;8.216;2023-06-10T04:57:09;101496.44;;;16.71;97.46
1207;BME280;593;53.184;8.216;2023-06-10T04:59:37;101496.75;;;16.70;97.49
1207;BME280;593;53.184;8.216;2023-06-10T05:02:06;101503.78;;;16.76;97.31
1207;BME280;593;53.184;8.216;2023-06-10T05:04:32;101501.16;;;16.84;97.21
1207;BME280;593;53.184;8.216;2023-06-10T05:06:57;101499.72;;;16.87;96.84
1207;BME280;593;53.184;8.216;2023-06-10T05:09:23;101499.34;;;16.93;96.88
1207;BME280;593;53.184;8.216;2023-06-10T05:11:48;101496.69;;;16.88;96.91
1207;BME280;593;53.184;8.216;2023-06-10T05:14:14;101499.25;;;16.98;96.24
1207;BME280;593;53.184;8.216;2023-06-10T05:16:42;101497.91;;;16.96;96.59
1207;BME280;593;53.184;8.216;2023-06-10T05:19:08;101492.50;;;16.91;96.45
1207;BME280;593;53.184;8.216;2023-06-10T05:21:33;101501.28;;;16.93;96.49
1207;BME280;593;53.184;8.216;2023-06-10T05:23:59;101502.78;;;16.99;96.53
1207;BME280;593;53.184;8.216;2023-06-10T05:26:24;101495.25;;;17.04;96.43
1207;BME280;593;53.184;8.216;2023-06-10T05:28:50;101507.28;;;17.08;95.60
1207;BME280;593;53.184;8.216;2023-06-10T05:31:40;101514.28;;;17.14;95.24
1207;BME280;593;53.184;8.216;2023-06-10T05:34:29;101503.31;;;17.14;95.09
1207;BME280;593;53.184;8.216;2023-06-10T05:36:54;101510.44;;;17.15;95.21
1207;BME280;593;53.184;8.216;2023-06-10T05:39:20;101502.47;;;17.14;95.15
1207;BME280;593;53.184;8.216;2023-06-10T05:41:45;101513.78;;;17.26;94.66
1207;BME280;593;53.184;8.216;2023-06-10T05:44:11;101510.75;;;17.27;94.81
1207;BME280;593;53.184;8.216;2023-06-10T05:46:36;101510.03;;;17.36;94.71
1207;BME280;593;53.184;8.216;2023-06-10T05:49:02;101507.56;;;17.34;94.77
1207;BME280;593;53.184;8.216;2023-06-10T05:51:28;101504.44;;;17.41;94.07
1207;BME280;593;53.184;8.216;2023-06-10T05:53:54;101509.81;;;17.46;94.54
1207;BME280;593;53.184;8.216;2023-06-10T05:56:43;101513.81;;;17.53;94.24
1207;BME280;593;53.184;8.216;2023-06-10T05:59:20;101507.06;;;17.59;93.40
1207;BME280;593;53.184;8.216;2023-06-10T06:01:48;101517.56;;;17.71;93.55
1207;BME280;593;53.184;8.216;2023-06-10T06:04:13;101512.63;;;17.81;93.21
1207;BME280;593;53.184;8.216;2023-06-10T06:06:39;101519.19;;;17.94;92.03
1207;BME280;593;53.184;8.216;2023-06-10T06:09:05;101526.03;;;17.97;91.15
1207;BME280;593;53.184;8.216;2023-06-10T06:11:31;101524.81;;;18.03;91.10
1207;BME280;593;53.184;8.216;2023-06-10T06:13:56;101518.44;;;18.16;90.11
1207;BME280;593;53.184;8.216;2023-06-10T06:16:21;101520.41;;;18.24;89.37
1207;BME280;593;53.184;8.216;2023-06-10T06:18:47;101504.53;;;18.21;89.26
1207;BME280;593;53.184;8.216;2023-06-10T06:21:12;101526.69;;;18.38;89.22
1207;BME280;593;53.184;8.216;2023-06-10T06:23:38;101524.13;;;18.41;88.10
1207;BME280;593;53.184;8.216;2023-06-10T06:26:19;101510.66;;;18.40;87.20
1207;BME280;593;53.184;8.216;2023-06-10T06:28:44;101518.72;;;18.36;87.33
1207;BME280;593;53.184;8.216;2023-06-10T06:31:09;101533.09;;;18.47;86.74
1207;BME280;593;53.184;8.216;2023-06-10T06:33:35;101528.16;;;18.58;86.65
1207;BME280;593;53.184;8.216;2023-06-10T06:36:00;101521.25;;;18.69;86.52
1207;BME280;593;53.184;8.216;2023-06-10T06:38:26;101524.50;;;18.71;85.75
1207;BME280;593;53.184;8.216;2023-06-10T06:40:51;101517.09;;;18.80;86.44
1207;BME280;593;53.184;8.216;2023-06-10T06:43:17;101523.97;;;18.91;86.12
1207;BME280;593;53.184;8.216;2023-06-10T06:45:44;101517.66;;;18.99;84.28
1207;BME280;593;53.184;8.216;2023-06-10T06:48:10;101519.03;;;19.10;84.57
1207;BME280;593;53.184;8.216;2023-06-10T06:50:36;101518.38;;;19.13;84.68
1207;BME280;593;53.184;8.216;2023-06-10T06:53:26;101518.78;;;19.29;84.99
1207;BME280;593;53.184;8.216;2023-06-10T06:55:51;101520.75;;;19.37;83.42
1207;BME280;593;53.184;8.216;2023-06-10T06:58:22;101518.72;;;19.51;82.01
1207;BME280;593;53.184;8.216;2023-06-10T07:00:47;101525.38;;;19.58;82.01
1207;BME280;593;53.184;8.216;2023-06-10T07:03:13;101526.19;;;19.59;81.96
1207;BME280;593;53.184;8.216;2023-06-10T07:06:07;101537.56;;;19.66;82.23
1207;BME280;593;53.184;8.216;2023-06-10T07:08:32;101529.28;;;19.74;80.94
1207;BME280;593;53.184;8.216;2023-06-10T07:10:57;101532.06;;;19.74;81.40
1207;BME280;593;53.184;8.216;2023-06-10T07:13:23;101532.06;;;19.83;81.16
1207;BME280;593;53.184;8.216;2023-06-10T07:15:48;101543.28;;;19.87;79.97
1207;BME280;593;53.184;8.216;2023-06-10T07:18:15;101541.81;;;19.89;80.76
1207;BME280;593;53.184;8.216;2023-06-10T07:20:41;101536.94;;;19.95;80.34
1207;BME280;593;53.184;8.216;2023-06-10T07:23:07;101524.78;;;19.96;79.40
1207;BME280;593;53.184;8.216;2023-06-10T07:25:32;101527.88;;;20.11;78.78
1207;BME280;593;53.184;8.216;2023-06-10T07:27:58;101548.84;;;20.29;77.67
1207;BME280;593;53.184;8.216;2023-06-10T07:30:33;101534.03;;;20.17;77.34
1207;BME280;593;53.184;8.216;2023-06-10T07:32:59;101544.44;;;20.20;76.95
1207;BME280;593;53.184;8.216;2023-06-10T07:35:24;101548.38;;;20.27;77.53
1207;BME280;593;53.184;8.216;2023-06-10T07:37:50;101550.81;;;20.37;76.94
1207;BME280;593;53.184;8.216;2023-06-10T07:40:15;101550.97;;;20.41;77.08
1207;BME280;593;53.184;8.216;2023-06-10T07:42:41;101551.44;;;20.43;76.17
1207;BME280;593;53.184;8.216;2023-06-10T07:45:07;101544.28;;;20.51;76.37
1207;BME280;593;53.184;8.216;2023-06-10T07:47:33;101536.47;;;20.61;75.78
1207;BME280;593;53.184;8.216;2023-06-10T07:49:59;101531.25;;;20.68;75.66
1207;BME280;593;53.184;8.216;2023-06-10T07:52:24;101536.91;;;20.80;75.91
1207;BME280;593;53.184;8.216;2023-06-10T07:54:51;101533.97;;;20.77;75.47
1207;BME280;593;53.184;8.216;2023-06-10T07:57:17;101535.44;;;20.83;75.39
1207;BME280;593;53.184;8.216;2023-06-10T07:59:42;101531.47;;;21.01;74.77
1207;BME280;593;53.184;8.216;2023-06-10T08:02:45;101542.31;;;21.23;74.16
1207;BME280;593;53.184;8.216;2023-06-10T08:05:11;101530.72;;;21.30;72.70
1207;BME280;593;53.184;8.216;2023-06-10T08:07:37;101545.00;;;21.40;72.56
1207;BME280;593;53.184;8.216;2023-06-10T08:10:03;101539.75;;;21.47;72.55
1207;BME280;593;53.184;8.216;2023-06-10T08:12:32;101532.03;;;21.61;72.46
1207;BME280;593;53.184;8.216;2023-06-10T08:14:58;101541.44;;;21.69;71.25
1207;BME280;593;53.184;8.216;2023-06-10T08:17:23;101532.69;;;21.58;71.54
1207;BME280;593;53.184;8.216;2023-06-10T08:20:04;101533.03;;;21.78;71.74
1207;BME280;593;53.184;8.216;2023-06-10T08:22:31;101533.66;;;21.83;71.73
1207;BME280;593;53.184;8.216;2023-06-10T08:24:56;101529.72;;;21.93;71.67
1207;BME280;593;53.184;8.216;2023-06-10T08:27:22;101527.69;;;22.02;70.63
1207;BME280;593;53.184;8.216;2023-06-10T08:29:47;101529.84;;;22.17;70.59
1207;BME280;593;53.184;8.216;2023-06-10T08:32:13;101521.44;;;22.25;70.63
1207;BME280;593;53.184;8.216;2023-06-10T08:34:38;101517.69;;;22.42;68.86
1207;BME280;593;53.184;8.216;2023-06-10T08:37:05;101510.34;;;22.46;69.30
1207;BME280;593;53.184;8.216;2023-06-10T08:39:30;101523.41;;;22.58;68.72
1207;BME280;593;53.184;8.216;2023-06-10T08:44:31;101528.28;;;22.93;67.53
1207;BME280;593;53.184;8.216;2023-06-10T08:47:10;101525.03;;;22.91;67.50
1207;BME280;593;53.184;8.216;2023-06-10T08:49:42;101527.13;;;22.94;67.32
1207;BME280;593;53.184;8.216;2023-06-10T08:52:11;101537.44;;;23.18;65.93
1207;BME280;593;53.184;8.216;2023-06-10T08:54:42;101523.81;;;23.37;65.42
1207;BME280;593;53.184;8.216;2023-06-10T08:57:08;101531.81;;;23.51;65.04
1207;BME280;593;53.184;8.216;2023-06-10T08:59:34;101532.50;;;23.60;65.23
1207;BME280;593;53.184;8.216;2023-06-10T09:02:00;101532.00;;;23.70;64.10
1207;BME280;593;53.184;8.216;2023-06-10T09:04:27;101519.97;;;23.78;63.83
1207;BME280;593;53.184;8.216;2023-06-10T09:07:08;101526.50;;;23.98;63.88
1207;BME280;593;53.184;8.216;2023-06-10T09:10:07;101526.63;;;24.13;63.52
1207;BME280;593;53.184;8.216;2023-06-10T09:12:33;101524.16;;;24.24;63.62
1207;BME280;593;53.184;8.216;2023-06-10T09:15:01;101519.59;;;24.32;62.65
1207;BME280;593;53.184;8.216;2023-06-10T09:17:27;101515.06;;;24.39;62.41
1207;BME280;593;53.184;8.216;2023-06-10T09:19:53;101516.06;;;24.47;61.15
1207;BME280;593;53.184;8.216;2023-06-10T09:22:21;101514.63;;;24.53;61.22
1207;BME280;593;53.184;8.216;2023-06-10T09:24:47;101512.13;;;24.63;61.72
1207;BME280;593;53.184;8.216;2023-06-10T09:27:13;101513.59;;;24.73;62.04
1207;BME280;593;53.184;8.216;2023-06-10T09:29:52;101509.84;;;24.81;61.04
1207;BME280;593;53.184;8.216;2023-06-10T09:32:18;101506.09;;;24.89;61.12
1207;BME280;593;53.184;8.216;2023-06-10T09:34:45;101495.59;;;24.98;61.27
1207;BME280;593;53.184;8.216;2023-06-10T09:37:11;101487.34;;;25.02;59.86
1207;BME280;593;53.184;8.216;2023-06-10T09:39:37;101494.59;;;25.06;60.22
1207;BME280;593;53.184;8.216;2023-06-10T09:42:18;101487.59;;;25.12;60.99
1207;BME280;593;53.184;8.216;2023-06-10T09:44:51;101485.69;;;25.16;60.58
1207;BME280;593;53.184;8.216;2023-06-10T09:47:23;101479.84;;;25.21;60.46
1207;BME280;593;53.184;8.216;2023-06-10T09:49:49;101490.00;;;25.29;59.63
1207;BME280;593;53.184;8.216;2023-06-10T09:52:21;101488.09;;;25.33;58.79
1207;BME280;593;53.184;8.216;2023-06-10T09:54:48;101483.50;;;25.41;59.51
1207;BME280;593;53.184;8.216;2023-06-10T09:57:13;101478.31;;;25.39;58.35
1207;BME280;593;53.184;8.216;2023-06-10T09:59:41;101473.72;;;25.31;58.29
1207;BME280;593;53.184;8.216;2023-06-10T10:02:13;101489.72;;;25.34;57.71
1207;BME280;593;53.184;8.216;2023-06-10T10:04:39;101490.44;;;25.31;57.97
1207;BME280;593;53.184;8.216;2023-06-10T10:07:04;101498.25;;;25.26;58.32
1207;BME280;593;53.184;8.216;2023-06-10T10:09:30;101493.25;;;25.16;57.31
1207;BME280;593;53.184;8.216;2023-06-10T10:11:55;101489.91;;;25.10;58.19
1207;BME280;593;53.184;8.216;2023-06-10T10:14:29;101507.53;;;25.14;58.61
1207;BME280;593;53.184;8.216;2023-06-10T10:16:57;101500.16;;;25.22;58.69
1207;BME280;593;53.184;8.216;2023-06-10T10:19:28;101491.69;;;25.34;59.42
1207;BME280;593;53.184;8.216;2023-06-10T10:21:59;101499.06;;;25.42;59.01
1207;BME280;593;53.184;8.216;2023-06-10T10:24:34;101498.44;;;25.48;59.25
1207;BME280;593;53.184;8.216;2023-06-10T10:27:01;101495.75;;;25.52;58.61
1207;BME280;593;53.184;8.216;2023-06-10T10:29:38;101497.44;;;25.57;59.28
1207;BME280;593;53.184;8.216;2023-06-10T10:32:06;101492.75;;;25.61;58.98
1207;BME280;593;53.184;8.216;2023-06-10T10:37:32;101488.06;;;25.65;60.71
1207;BME280;593;53.184;8.216;2023-06-10T10:39:58;101481.50;;;25.73;60.79
1207;BME280;593;53.184;8.216;2023-06-10T10:42:25;101489.72;;;25.85;61.24
1207;BME280;593;53.184;8.216;2023-06-10T10:44:52;101480.69;;;25.91;60.64
1207;BME280;593;53.184;8.216;2023-06-10T10:47:20;101483.31;;;26.03;60.09
1207;BME280;593;53.184;8.216;2023-06-10T10:49:48;101472.91;;;26.00;56.85
1207;BME280;593;53.184;8.216;2023-06-10T10:52:15;101481.50;;;26.11;56.96
1207;BME280;593;53.184;8.216;2023-06-10T10:54:46;101480.94;;;26.21;56.97
1207;BME280;593;53.184;8.216;2023-06-10T10:57:19;101486.72;;;26.32;57.09
1207;BME280;593;53.184;8.216;2023-06-10T10:59:53;101495.22;;;26.39;56.62
1207;BME280;593;53.184;8.216;2023-06-10T11:02:41;101490.09;;;26.41;53.60
1207;BME280;593;53.184;8.216;2023-06-10T11:05:15;101489.00;;;26.45;52.78
1207;BME280;593;53.184;8.216;2023-06-10T11:07:51;101489.31;;;26.40;52.03
1207;BME280;593;53.184;8.216;2023-06-10T11:10:17;101482.16;;;26.43;55.22
1207;BME280;593;53.184;8.216;2023-06-10T11:15:22;101486.34;;;26.52;54.02
1207;BME280;593;53.184;8.216;2023-06-10T11:21:04;101477.97;;;26.52;53.51
1207;BME280;593;53.184;8.216;2023-06-10T11:23:37;101468.69;;;26.48;57.17
1207;BME280;593;53.184;8.216;2023-06-10T11:31:30;101468.31;;;26.27;53.03
1207;BME280;593;53.184;8.216;2023-06-10T11:33:57;101468.44;;;26.34;56.06
1207;BME280;593;53.184;8.216;2023-06-10T11:36:26;101463.59;;;26.31;56.02
1207;BME280;593;53.184;8.216;2023-06-10T11:38:58;101462.13;;;26.37;52.32
1207;BME280;593;53.184;8.216;2023-06-10T11:41:33;101460.59;;;26.40;53.37
1207;BME280;593;53.184;8.216;2023-06-10T11:44:08;101449.28;;;26.33;53.28
1207;BME280;593;53.184;8.216;2023-06-10T11:46:34;101450.47;;;26.32;51.32
1207;BME280;593;53.184;8.216;2023-06-10T11:49:08;101461.53;;;26.47;53.15
1207;BME280;593;53.184;8.216;2023-06-10T11:51:39;101449.97;;;26.49;55.87
1207;BME280;593;53.184;8.216;2023-06-10T11:54:08;101450.47;;;26.54;52.14
1207;BME280;593;53.184;8.216;2023-06-10T11:56:34;101450.47;;;26.54;52.26
1207;BME280;593;53.184;8.216;2023-06-10T11:59:10;101450.69;;;26.65;54.27
1207;BME280;593;53.184;8.216;2023-06-10T12:01:44;101446.03;;;26.72;54.75
1207;BME280;593;53.184;8.216;2023-06-10T12:04:14;101446.38;;;26.71;52.05
1207;BME280;593;53.184;8.216;2023-06-10T12:09:28;101433.06;;;26.84;51.42
1207;BME280;593;53.184;8.216;2023-06-10T12:11:57;101440.38;;;26.92;53.77
1207;BME280;593;53.184;8.216;2023-06-10T12:14:58;101437.69;;;26.99;52.59
1207;BME280;593;53.184;8.216;2023-06-10T12:17:36;101436.56;;;27.03;49.71
1207;BME280;593;53.184;8.216;2023-06-10T12:20:05;101433.41;;;27.05;50.61
1207;BME280;593;53.184;8.216;2023-06-10T12:22:41;101436.06;;;27.20;48.77
1207;BME280;593;53.184;8.216;2023-06-10T12:25:08;101431.91;;;27.37;50.18
1207;BME280;593;53.184;8.216;2023-06-10T12:27:34;101430.16;;;27.52;50.59
1207;BME280;593;53.184;8.216;2023-06-10T12:30:04;101436.72;;;27.66;50.11
1207;BME280;593;53.184;8.216;2023-06-10T12:32:46;101427.72;;;27.80;48.68
1207;BME280;593;53.184;8.216;2023-06-10T12:35:16;101422.63;;;27.85;49.68
1207;BME280;593;53.184;8.216;2023-06-10T12:37:43;101431.16;;;27.99;48.45
1207;BME280;593;53.184;8.216;2023-06-10T12:40:29;101423.69;;;28.07;47.85
1207;BME280;593;53.184;8.216;2023-06-10T12:42:55;101417.41;;;28.17;49.68
1207;BME280;593;53.184;8.216;2023-06-10T12:45:32;101415.09;;;28.26;45.96
1207;BME280;593;53.184;8.216;2023-06-10T12:48:17;101416.03;;;28.37;47.06
1207;BME280;593;53.184;8.216;2023-06-10T12:51:03;101406.47;;;28.42;47.10
1207;BME280;593;53.184;8.216;2023-06-10T12:54:08;101420.94;;;28.51;44.42
1207;BME280;593;53.184;8.216;2023-06-10T12:56:34;101412.16;;;28.52;44.14
1207;BME280;593;53.184;8.216;2023-06-10T12:58:59;101408.63;;;28.59;44.26
1207;BME280;593;53.184;8.216;2023-06-10T13:01:24;101415.13;;;28.67;39.32
1207;BME280;593;53.184;8.216;2023-06-10T13:03:50;101421.03;;;28.58;38.88
1207;BME280;593;53.184;8.216;2023-06-10T13:06:15;101417.31;;;28.47;41.17
1207;BME280;593;53.184;8.216;2023-06-10T13:08:41;101414.09;;;28.45;39.75
1207;BME280;593;53.184;8.216;2023-06-10T13:11:06;101417.59;;;28.35;38.10
1207;BME280;593;53.184;8.216;2023-06-10T13:13:32;101414.75;;;28.31;39.44
1207;BME280;593;53.184;8.216;2023-06-10T13:15:57;101408.03;;;28.36;38.45
1207;BME280;593;53.184;8.216;2023-06-10T13:18:24;101399.63;;;28.36;37.33
1207;BME280;593;53.184;8.216;2023-06-10T13:20:49;101410.41;;;28.37;37.43
1207;BME280;593;53.184;8.216;2023-06-10T13:23:14;101400.84;;;28.42;40.62
1207;BME280;593;53.184;8.216;2023-06-10T13:25:40;101399.69;;;28.46;40.42
1207;BME280;593;53.184;8.216;2023-06-10T13:28:06;101386.91;;;28.45;38.25
1207;BME280;593;53.184;8.216;2023-06-10T13:30:32;101405.34;;;28.53;40.82
1207;BME280;593;53.184;8.216;2023-06-10T13:32:58;101398.19;;;28.56;37.28
1207;BME280;593;53.184;8.216;2023-06-10T13:35:25;101397.91;;;28.65;38.89
1207;BME280;593;53.184;8.216;2023-06-10T13:37:50;101394.63;;;28.59;35.04
1207;BME280;593;53.184;8.216;2023-06-10T13:40:43;101390.25;;;28.62;35.39
1207;BME280;593;53.184;8.216;2023-06-10T13:43:46;101391.00;;;28.58;35.68
1207;BME280;593;53.184;8.216;2023-06-10T13:46:48;101386.66;;;28.61;34.40
1207;BME280;593;53.184;8.216;2023-06-10T13:49:14;101383.47;;;28.63;36.62
1207;BME280;593;53.184;8.216;2023-06-10T13:51:39;101375.59;;;28.75;39.23
1207;BME280;593;53.184;8.216;2023-06-10T13:54:05;101372.16;;;28.99;39.08